sensor_id;sensor_type;location;lat;lon;timestamp;P1;durP1;ratioP1;P2;durP2;ratioP2
9974;SDS011;5028;50.974;4.968;2023-07-31T00:00:08;10.63;;;4.17;;
9974;SDS011;5028;50.974;4.968;2023-07-31T00:02:37;10.20;;;4.57;;
9974;SDS011;5028;50.974;4.968;2023-07-31T00:05:07;8.93;;;4.03;;
9974;SDS011;5028;50.974;4.968;2023-07-31T00:07:36;11.10;;;4.00;;
9974;SDS011;5028;50.974;4.968;2023-07-31T00:10:05;10.13;;;4.30;;
9974;SDS011;5028;50.974;4.968;2023-07-31T00:12:34;9.73;;;4.37;;
9974;SDS011;5028;50.974;4.968;2023-07-31T00:15:03;9.20;;;3.93;;
9974;SDS011;5028;50.974;4.968;2023-07-31T00:17:35;12.93;;;4.67;;
9974;SDS011;5028;50.974;4.968;2023-07-31T00:20:04;9.50;;;4.10;;
9974;SDS011;5028;50.974;4.968;2023-07-31T00:22:34;10.10;;;4.40;;
9974;SDS011;5028;50.974;4.968;2023-07-31T00:25:03;9.60;;;4.20;;
9974;SDS011;5028;50.974;4.968;2023-07-31T00:27:32;8.77;;;4.57;;
9974;SDS011;5028;50.974;4.968;2023-07-31T00:30:01;10.20;;;4.53;;
9974;SDS011;5028;50.974;4.968;2023-07-31T00:32:32;10.03;;;4.67;;
9974;SDS011;5028;50.974;4.968;2023-07-31T00:35:01;8.57;;;4.60;;
9974;SDS011;5028;50.974;4.968;2023-07-31T00:37:30;9.83;;;4.80;;
9974;SDS011;5028;50.974;4.968;2023-07-31T00:39:59;13.33;;;4.80;;
9974;SDS011;5028;50.974;4.968;2023-07-31T00:42:30;10.27;;;4.13;;
9974;SDS011;5028;50.974;4.968;2023-07-31T00:44:59;10.13;;;4.50;;
9974;SDS011;5028;50.974;4.968;2023-07-31T00:47:29;11.47;;;4.20;;
9974;SDS011;5028;50.974;4.968;2023-07-31T00:49:59;11.40;;;4.43;;
9974;SDS011;5028;50.974;4.968;2023-07-31T00:52:28;9.63;;;4.03;;
9974;SDS011;5028;50.974;4.968;2023-07-31T00:54:57;10.13;;;4.50;;
9974;SDS011;5028;50.974;4.968;2023-07-31T00:57:26;10.33;;;4.27;;
9974;SDS011;5028;50.974;4.968;2023-07-31T00:59:54;10.57;;;4.60;;
9974;SDS011;5028;50.974;4.968;2023-07-31T01:02:23;8.63;;;4.73;;
9974;SDS011;5028;50.974;4.968;2023-07-31T01:04:52;9.80;;;4.43;;
9974;SDS011;5028;50.974;4.968;2023-07-31T01:07:25;10.47;;;4.37;;
9974;SDS011;5028;50.974;4.968;2023-07-31T01:09:59;11.07;;;4.70;;
9974;SDS011;5028;50.974;4.968;2023-07-31T01:12:35;12.23;;;4.40;;
9974;SDS011;5028;50.974;4.968;2023-07-31T01:15:06;10.93;;;4.63;;
9974;SDS011;5028;50.974;4.968;2023-07-31T01:17:37;10.73;;;4.30;;
9974;SDS011;5028;50.974;4.968;2023-07-31T01:20:08;10.93;;;4.33;;
9974;SDS011;5028;50.974;4.968;2023-07-31T01:25:56;9.80;;;4.40;;
9974;SDS011;5028;50.974;4.968;2023-07-31T01:28:38;10.40;;;4.30;;
9974;SDS011;5028;50.974;4.968;2023-07-31T01:31:15;10.43;;;4.40;;
9974;SDS011;5028;50.974;4.968;2023-07-31T01:33:48;9.90;;;4.10;;
9974;SDS011;5028;50.974;4.968;2023-07-31T01:36:18;9.13;;;4.30;;
9974;SDS011;5028;50.974;4.968;2023-07-31T01:38:47;11.20;;;4.07;;
9974;SDS011;5028;50.974;4.968;2023-07-31T01:41:18;8.40;;;4.10;;
9974;SDS011;5028;50.974;4.968;2023-07-31T01:43:47;8.07;;;3.90;;
9974;SDS011;5028;50.974;4.968;2023-07-31T01:46:16;10.17;;;4.10;;
9974;SDS011;5028;50.974;4.968;2023-07-31T01:48:44;11.10;;;4.23;;
9974;SDS011;5028;50.974;4.968;2023-07-31T01:51:13;11.30;;;4.23;;
9974;SDS011;5028;50.974;4.968;2023-07-31T01:53:42;10.93;;;4.80;;
9974;SDS011;5028;50.974;4.968;2023-07-31T01:56:11;9.03;;;4.23;;
9974;SDS011;5028;50.974;4.968;2023-07-31T01:58:41;12.03;;;4.40;;
9974;SDS011;5028;50.974;4.968;2023-07-31T02:01:10;11.67;;;4.47;;
9974;SDS011;5028;50.974;4.968;2023-07-31T02:03:38;9.40;;;4.30;;
9974;SDS011;5028;50.974;4.968;2023-07-31T02:06:08;8.53;;;4.20;;
9974;SDS011;5028;50.974;4.968;2023-07-31T02:08:37;9.53;;;4.70;;
9974;SDS011;5028;50.974;4.968;2023-07-31T02:11:08;9.73;;;3.83;;
9974;SDS011;5028;50.974;4.968;2023-07-31T02:13:37;8.93;;;4.43;;
9974;SDS011;5028;50.974;4.968;2023-07-31T02:16:07;7.73;;;4.03;;
9974;SDS011;5028;50.974;4.968;2023-07-31T02:18:36;9.43;;;4.93;;
9974;SDS011;5028;50.974;4.968;2023-07-31T02:21:05;10.97;;;4.43;;
9974;SDS011;5028;50.974;4.968;2023-07-31T02:23:33;9.13;;;4.20;;
9974;SDS011;5028;50.974;4.968;2023-07-31T02:26:01;9.30;;;4.40;;
9974;SDS011;5028;50.974;4.968;2023-07-31T02:28:30;8.10;;;4.03;;
9974;SDS011;5028;50.974;4.968;2023-07-31T02:30:59;9.67;;;4.50;;
9974;SDS011;5028;50.974;4.968;2023-07-31T02:33:29;8.53;;;4.30;;
9974;SDS011;5028;50.974;4.968;2023-07-31T02:35:58;9.83;;;4.20;;
9974;SDS011;5028;50.974;4.968;2023-07-31T02:38:27;9.27;;;4.53;;
9974;SDS011;5028;50.974;4.968;2023-07-31T02:40:56;10.07;;;3.67;;
9974;SDS011;5028;50.974;4.968;2023-07-31T02:43:25;9.47;;;4.80;;
9974;SDS011;5028;50.974;4.968;2023-07-31T02:45:54;8.60;;;3.63;;
9974;SDS011;5028;50.974;4.968;2023-07-31T02:48:22;8.97;;;4.20;;
9974;SDS011;5028;50.974;4.968;2023-07-31T02:50:53;11.73;;;4.57;;
9974;SDS011;5028;50.974;4.968;2023-07-31T02:53:21;6.43;;;4.10;;
9974;SDS011;5028;50.974;4.968;2023-07-31T02:55:50;9.73;;;4.33;;
9974;SDS011;5028;50.974;4.968;2023-07-31T02:58:19;8.13;;;4.03;;
9974;SDS011;5028;50.974;4.968;2023-07-31T03:00:48;7.90;;;4.37;;
9974;SDS011;5028;50.974;4.968;2023-07-31T03:03:17;8.60;;;4.30;;
9974;SDS011;5028;50.974;4.968;2023-07-31T03:05:45;9.07;;;4.10;;
9974;SDS011;5028;50.974;4.968;2023-07-31T03:08:15;7.47;;;4.20;;
9974;SDS011;5028;50.974;4.968;2023-07-31T03:10:44;7.77;;;3.73;;
9974;SDS011;5028;50.974;4.968;2023-07-31T03:13:14;10.40;;;4.67;;
9974;SDS011;5028;50.974;4.968;2023-07-31T03:15:42;11.73;;;4.93;;
9974;SDS011;5028;50.974;4.968;2023-07-31T03:18:11;7.77;;;4.03;;
9974;SDS011;5028;50.974;4.968;2023-07-31T03:20:41;8.13;;;4.37;;
9974;SDS011;5028;50.974;4.968;2023-07-31T03:23:10;7.67;;;4.30;;
9974;SDS011;5028;50.974;4.968;2023-07-31T03:25:41;7.20;;;4.00;;
9974;SDS011;5028;50.974;4.968;2023-07-31T03:28:24;5.67;;;3.90;;
9974;SDS011;5028;50.974;4.968;2023-07-31T03:30:52;7.20;;;3.67;;
9974;SDS011;5028;50.974;4.968;2023-07-31T03:33:21;6.03;;;3.70;;
9974;SDS011;5028;50.974;4.968;2023-07-31T03:35:50;6.67;;;3.77;;
9974;SDS011;5028;50.974;4.968;2023-07-31T03:38:19;7.50;;;3.60;;
9974;SDS011;5028;50.974;4.968;2023-07-31T03:40:49;8.63;;;4.20;;
9974;SDS011;5028;50.974;4.968;2023-07-31T03:43:18;7.43;;;3.93;;
9974;SDS011;5028;50.974;4.968;2023-07-31T03:45:46;7.60;;;3.83;;
9974;SDS011;5028;50.974;4.968;2023-07-31T03:48:15;8.20;;;3.90;;
9974;SDS011;5028;50.974;4.968;2023-07-31T03:50:44;7.00;;;3.63;;
9974;SDS011;5028;50.974;4.968;2023-07-31T03:53:13;5.10;;;3.70;;
9974;SDS011;5028;50.974;4.968;2023-07-31T03:55:42;7.37;;;3.67;;
9974;SDS011;5028;50.974;4.968;2023-07-31T03:58:13;6.17;;;3.53;;
9974;SDS011;5028;50.974;4.968;2023-07-31T04:00:42;7.13;;;4.00;;
9974;SDS011;5028;50.974;4.968;2023-07-31T04:03:10;6.63;;;3.80;;
9974;SDS011;5028;50.974;4.968;2023-07-31T04:05:39;6.70;;;3.67;;
9974;SDS011;5028;50.974;4.968;2023-07-31T04:08:08;5.10;;;3.63;;
9974;SDS011;5028;50.974;4.968;2023-07-31T04:10:36;7.90;;;3.70;;
9974;SDS011;5028;50.974;4.968;2023-07-31T04:13:05;5.07;;;3.47;;
9974;SDS011;5028;50.974;4.968;2023-07-31T04:15:35;5.80;;;3.63;;
9974;SDS011;5028;50.974;4.968;2023-07-31T04:18:04;5.57;;;3.80;;
9974;SDS011;5028;50.974;4.968;2023-07-31T04:20:33;5.17;;;3.40;;
9974;SDS011;5028;50.974;4.968;2023-07-31T04:23:02;9.63;;;4.20;;
9974;SDS011;5028;50.974;4.968;2023-07-31T04:25:30;6.17;;;3.60;;
9974;SDS011;5028;50.974;4.968;2023-07-31T04:28:01;11.10;;;3.80;;
9974;SDS011;5028;50.974;4.968;2023-07-31T04:30:30;6.87;;;3.83;;
9974;SDS011;5028;50.974;4.968;2023-07-31T04:33:00;4.73;;;3.93;;
9974;SDS011;5028;50.974;4.968;2023-07-31T04:35:29;8.80;;;4.43;;
9974;SDS011;5028;50.974;4.968;2023-07-31T04:37:58;8.90;;;4.20;;
9974;SDS011;5028;50.974;4.968;2023-07-31T04:40:26;9.47;;;4.27;;
9974;SDS011;5028;50.974;4.968;2023-07-31T04:42:55;4.97;;;3.70;;
9974;SDS011;5028;50.974;4.968;2023-07-31T04:45:24;7.57;;;3.67;;
9974;SDS011;5028;50.974;4.968;2023-07-31T04:47:53;5.53;;;3.77;;
9974;SDS011;5028;50.974;4.968;2023-07-31T04:50:23;6.47;;;3.60;;
9974;SDS011;5028;50.974;4.968;2023-07-31T04:52:52;7.90;;;3.83;;
9974;SDS011;5028;50.974;4.968;2023-07-31T04:55:21;5.67;;;3.47;;
9974;SDS011;5028;50.974;4.968;2023-07-31T04:57:50;5.30;;;3.73;;
9974;SDS011;5028;50.974;4.968;2023-07-31T05:00:19;7.00;;;3.60;;
9974;SDS011;5028;50.974;4.968;2023-07-31T05:02:48;6.23;;;3.67;;
9974;SDS011;5028;50.974;4.968;2023-07-31T05:05:17;8.00;;;3.40;;
9974;SDS011;5028;50.974;4.968;2023-07-31T05:07:47;6.50;;;3.60;;
9974;SDS011;5028;50.974;4.968;2023-07-31T05:10:16;6.63;;;3.50;;
9974;SDS011;5028;50.974;4.968;2023-07-31T05:12:45;5.03;;;3.30;;
9974;SDS011;5028;50.974;4.968;2023-07-31T05:15:14;5.60;;;3.30;;
9974;SDS011;5028;50.974;4.968;2023-07-31T05:17:42;7.17;;;3.40;;
9974;SDS011;5028;50.974;4.968;2023-07-31T05:20:11;6.93;;;3.80;;
9974;SDS011;5028;50.974;4.968;2023-07-31T05:22:41;4.90;;;3.20;;
9974;SDS011;5028;50.974;4.968;2023-07-31T05:25:12;5.47;;;3.40;;
9974;SDS011;5028;50.974;4.968;2023-07-31T05:27:41;8.30;;;3.47;;
9974;SDS011;5028;50.974;4.968;2023-07-31T05:30:10;8.50;;;3.83;;
9974;SDS011;5028;50.974;4.968;2023-07-31T05:32:39;6.67;;;3.33;;
9974;SDS011;5028;50.974;4.968;2023-07-31T05:35:08;5.70;;;3.40;;
9974;SDS011;5028;50.974;4.968;2023-07-31T05:37:37;5.03;;;3.47;;
9974;SDS011;5028;50.974;4.968;2023-07-31T05:40:06;7.37;;;3.63;;
9974;SDS011;5028;50.974;4.968;2023-07-31T05:42:37;4.63;;;3.63;;
9974;SDS011;5028;50.974;4.968;2023-07-31T05:45:06;4.53;;;3.13;;
9974;SDS011;5028;50.974;4.968;2023-07-31T05:47:35;5.50;;;3.40;;
9974;SDS011;5028;50.974;4.968;2023-07-31T05:50:05;4.87;;;3.20;;
9974;SDS011;5028;50.974;4.968;2023-07-31T05:52:34;3.97;;;3.03;;
9974;SDS011;5028;50.974;4.968;2023-07-31T05:55:02;5.50;;;3.73;;
9974;SDS011;5028;50.974;4.968;2023-07-31T05:57:31;7.00;;;3.20;;
9974;SDS011;5028;50.974;4.968;2023-07-31T06:00:01;7.00;;;3.20;;
9974;SDS011;5028;50.974;4.968;2023-07-31T06:02:30;6.40;;;3.33;;
9974;SDS011;5028;50.974;4.968;2023-07-31T06:05:04;5.60;;;3.40;;
9974;SDS011;5028;50.974;4.968;2023-07-31T06:07:33;6.83;;;3.20;;
9974;SDS011;5028;50.974;4.968;2023-07-31T06:10:04;5.23;;;2.93;;
9974;SDS011;5028;50.974;4.968;2023-07-31T06:12:34;4.87;;;2.90;;
9974;SDS011;5028;50.974;4.968;2023-07-31T06:15:05;5.57;;;3.07;;
9974;SDS011;5028;50.974;4.968;2023-07-31T06:17:34;4.13;;;2.80;;
9974;SDS011;5028;50.974;4.968;2023-07-31T06:20:03;5.43;;;3.30;;
9974;SDS011;5028;50.974;4.968;2023-07-31T06:22:34;6.10;;;2.83;;
9974;SDS011;5028;50.974;4.968;2023-07-31T06:25:03;5.67;;;3.33;;
9974;SDS011;5028;50.974;4.968;2023-07-31T06:27:32;5.87;;;3.30;;
9974;SDS011;5028;50.974;4.968;2023-07-31T06:30:00;5.90;;;3.10;;
9974;SDS011;5028;50.974;4.968;2023-07-31T06:32:34;4.73;;;3.13;;
9974;SDS011;5028;50.974;4.968;2023-07-31T06:35:03;6.67;;;3.20;;
9974;SDS011;5028;50.974;4.968;2023-07-31T06:37:32;4.70;;;2.90;;
9974;SDS011;5028;50.974;4.968;2023-07-31T06:40:03;7.93;;;3.40;;
9974;SDS011;5028;50.974;4.968;2023-07-31T06:42:35;5.97;;;3.43;;
9974;SDS011;5028;50.974;4.968;2023-07-31T06:45:04;4.63;;;3.30;;
9974;SDS011;5028;50.974;4.968;2023-07-31T06:47:35;5.40;;;3.43;;
9974;SDS011;5028;50.974;4.968;2023-07-31T06:50:04;4.23;;;3.30;;
9974;SDS011;5028;50.974;4.968;2023-07-31T06:52:33;5.67;;;3.20;;
9974;SDS011;5028;50.974;4.968;2023-07-31T06:55:03;7.53;;;2.97;;
9974;SDS011;5028;50.974;4.968;2023-07-31T06:57:45;5.57;;;3.20;;
9974;SDS011;5028;50.974;4.968;2023-07-31T07:00:14;6.03;;;3.43;;
9974;SDS011;5028;50.974;4.968;2023-07-31T07:02:45;4.47;;;3.30;;
9974;SDS011;5028;50.974;4.968;2023-07-31T07:05:14;4.77;;;2.87;;
9974;SDS011;5028;50.974;4.968;2023-07-31T07:07:44;6.13;;;3.30;;
9974;SDS011;5028;50.974;4.968;2023-07-31T07:10:13;4.70;;;3.23;;
9974;SDS011;5028;50.974;4.968;2023-07-31T07:12:41;5.70;;;3.23;;
9974;SDS011;5028;50.974;4.968;2023-07-31T07:15:10;5.33;;;3.20;;
9974;SDS011;5028;50.974;4.968;2023-07-31T07:17:39;7.03;;;3.13;;
9974;SDS011;5028;50.974;4.968;2023-07-31T07:20:10;5.03;;;3.00;;
9974;SDS011;5028;50.974;4.968;2023-07-31T07:22:39;5.73;;;3.23;;
9974;SDS011;5028;50.974;4.968;2023-07-31T07:25:09;6.50;;;3.20;;
9974;SDS011;5028;50.974;4.968;2023-07-31T07:27:37;6.23;;;3.40;;
9974;SDS011;5028;50.974;4.968;2023-07-31T07:30:07;5.17;;;3.10;;
9974;SDS011;5028;50.974;4.968;2023-07-31T07:32:36;4.13;;;2.70;;
9974;SDS011;5028;50.974;4.968;2023-07-31T07:35:05;4.73;;;3.13;;
9974;SDS011;5028;50.974;4.968;2023-07-31T07:37:36;6.40;;;3.10;;
9974;SDS011;5028;50.974;4.968;2023-07-31T07:40:05;4.67;;;3.00;;
9974;SDS011;5028;50.974;4.968;2023-07-31T07:42:34;4.63;;;3.37;;
9974;SDS011;5028;50.974;4.968;2023-07-31T07:45:03;7.97;;;3.33;;
9974;SDS011;5028;50.974;4.968;2023-07-31T07:47:33;5.30;;;2.93;;
9974;SDS011;5028;50.974;4.968;2023-07-31T07:50:02;4.13;;;2.70;;
9974;SDS011;5028;50.974;4.968;2023-07-31T07:52:36;5.60;;;3.10;;
9974;SDS011;5028;50.974;4.968;2023-07-31T07:55:05;4.93;;;2.90;;
9974;SDS011;5028;50.974;4.968;2023-07-31T07:57:34;5.40;;;2.77;;
9974;SDS011;5028;50.974;4.968;2023-07-31T08:00:03;4.67;;;2.83;;
9974;SDS011;5028;50.974;4.968;2023-07-31T08:02:33;4.87;;;3.00;;
9974;SDS011;5028;50.974;4.968;2023-07-31T08:05:01;5.37;;;3.00;;
9974;SDS011;5028;50.974;4.968;2023-07-31T08:07:30;8.23;;;3.10;;
9974;SDS011;5028;50.974;4.968;2023-07-31T08:10:00;5.03;;;2.77;;
9974;SDS011;5028;50.974;4.968;2023-07-31T08:12:29;5.70;;;2.90;;
9974;SDS011;5028;50.974;4.968;2023-07-31T08:14:57;5.50;;;2.77;;
9974;SDS011;5028;50.974;4.968;2023-07-31T08:17:27;5.00;;;2.90;;
9974;SDS011;5028;50.974;4.968;2023-07-31T08:19:56;4.57;;;2.60;;
9974;SDS011;5028;50.974;4.968;2023-07-31T08:22:25;7.60;;;2.97;;
9974;SDS011;5028;50.974;4.968;2023-07-31T08:24:53;3.87;;;3.13;;
9974;SDS011;5028;50.974;4.968;2023-07-31T08:27:23;6.00;;;3.00;;
9974;SDS011;5028;50.974;4.968;2023-07-31T08:29:52;3.77;;;2.73;;
9974;SDS011;5028;50.974;4.968;2023-07-31T08:32:21;3.50;;;2.63;;
9974;SDS011;5028;50.974;4.968;2023-07-31T08:34:50;5.97;;;2.80;;
9974;SDS011;5028;50.974;4.968;2023-07-31T08:37:19;4.43;;;2.77;;
9974;SDS011;5028;50.974;4.968;2023-07-31T08:39:48;3.40;;;2.60;;
9974;SDS011;5028;50.974;4.968;2023-07-31T08:42:17;4.23;;;2.43;;
9974;SDS011;5028;50.974;4.968;2023-07-31T08:44:47;3.57;;;2.50;;
9974;SDS011;5028;50.974;4.968;2023-07-31T08:47:16;3.30;;;2.30;;
9974;SDS011;5028;50.974;4.968;2023-07-31T08:49:47;4.40;;;2.40;;
9974;SDS011;5028;50.974;4.968;2023-07-31T08:52:16;3.60;;;2.23;;
9974;SDS011;5028;50.974;4.968;2023-07-31T08:54:45;4.43;;;2.43;;
9974;SDS011;5028;50.974;4.968;2023-07-31T08:57:14;5.50;;;2.33;;
9974;SDS011;5028;50.974;4.968;2023-07-31T08:59:43;4.57;;;2.17;;
9974;SDS011;5028;50.974;4.968;2023-07-31T09:02:14;6.30;;;2.43;;
9974;SDS011;5028;50.974;4.968;2023-07-31T09:04:45;2.53;;;1.97;;
9974;SDS011;5028;50.974;4.968;2023-07-31T09:07:14;3.30;;;2.27;;
9974;SDS011;5028;50.974;4.968;2023-07-31T09:09:45;5.07;;;2.10;;
9974;SDS011;5028;50.974;4.968;2023-07-31T09:12:14;3.30;;;2.17;;
9974;SDS011;5028;50.974;4.968;2023-07-31T09:14:43;3.87;;;2.13;;
9974;SDS011;5028;50.974;4.968;2023-07-31T09:17:15;4.30;;;2.37;;
9974;SDS011;5028;50.974;4.968;2023-07-31T09:19:44;3.80;;;2.27;;
9974;SDS011;5028;50.974;4.968;2023-07-31T09:22:13;4.03;;;2.53;;
9974;SDS011;5028;50.974;4.968;2023-07-31T09:24:42;2.70;;;2.10;;
9974;SDS011;5028;50.974;4.968;2023-07-31T09:27:11;4.47;;;2.13;;
9974;SDS011;5028;50.974;4.968;2023-07-31T09:29:59;2.50;;;2.00;;
9974;SDS011;5028;50.974;4.968;2023-07-31T09:32:28;3.30;;;2.20;;
9974;SDS011;5028;50.974;4.968;2023-07-31T09:34:59;2.80;;;2.03;;
9974;SDS011;5028;50.974;4.968;2023-07-31T09:37:40;3.20;;;2.20;;
9974;SDS011;5028;50.974;4.968;2023-07-31T09:40:09;3.17;;;2.27;;
9974;SDS011;5028;50.974;4.968;2023-07-31T09:42:52;4.23;;;2.30;;
9974;SDS011;5028;50.974;4.968;2023-07-31T09:45:23;2.77;;;2.23;;
9974;SDS011;5028;50.974;4.968;2023-07-31T09:48:06;3.83;;;2.07;;
9974;SDS011;5028;50.974;4.968;2023-07-31T09:50:37;3.73;;;2.33;;
9974;SDS011;5028;50.974;4.968;2023-07-31T09:53:08;3.10;;;2.23;;
9974;SDS011;5028;50.974;4.968;2023-07-31T09:55:39;3.33;;;2.30;;
9974;SDS011;5028;50.974;4.968;2023-07-31T09:58:09;2.77;;;2.30;;
9974;SDS011;5028;50.974;4.968;2023-07-31T10:00:41;3.63;;;2.40;;
9974;SDS011;5028;50.974;4.968;2023-07-31T10:03:10;3.10;;;2.50;;
9974;SDS011;5028;50.974;4.968;2023-07-31T10:05:40;3.37;;;2.40;;
9974;SDS011;5028;50.974;4.968;2023-07-31T10:08:12;4.43;;;2.80;;
9974;SDS011;5028;50.974;4.968;2023-07-31T10:10:43;3.73;;;2.70;;
9974;SDS011;5028;50.974;4.968;2023-07-31T10:13:13;3.63;;;2.70;;
9974;SDS011;5028;50.974;4.968;2023-07-31T10:15:44;3.93;;;2.20;;
9974;SDS011;5028;50.974;4.968;2023-07-31T10:18:14;4.90;;;2.60;;
9974;SDS011;5028;50.974;4.968;2023-07-31T10:20:44;3.57;;;2.27;;
9974;SDS011;5028;50.974;4.968;2023-07-31T10:23:14;3.87;;;2.17;;
9974;SDS011;5028;50.974;4.968;2023-07-31T10:25:43;3.70;;;2.33;;
9974;SDS011;5028;50.974;4.968;2023-07-31T10:28:13;4.80;;;2.27;;
9974;SDS011;5028;50.974;4.968;2023-07-31T10:30:44;3.63;;;2.47;;
9974;SDS011;5028;50.974;4.968;2023-07-31T10:33:17;4.53;;;2.40;;
9974;SDS011;5028;50.974;4.968;2023-07-31T10:35:47;4.57;;;2.53;;
9974;SDS011;5028;50.974;4.968;2023-07-31T10:38:17;3.83;;;2.80;;
9974;SDS011;5028;50.974;4.968;2023-07-31T10:40:46;3.97;;;2.50;;
9974;SDS011;5028;50.974;4.968;2023-07-31T10:43:23;3.77;;;2.93;;
9974;SDS011;5028;50.974;4.968;2023-07-31T10:45:55;2.90;;;2.50;;
9974;SDS011;5028;50.974;4.968;2023-07-31T10:48:24;5.13;;;2.90;;
9974;SDS011;5028;50.974;4.968;2023-07-31T10:51:00;3.60;;;2.60;;
9974;SDS011;5028;50.974;4.968;2023-07-31T10:53:31;4.87;;;2.70;;
9974;SDS011;5028;50.974;4.968;2023-07-31T10:56:00;7.93;;;3.00;;
9974;SDS011;5028;50.974;4.968;2023-07-31T10:58:30;5.40;;;3.20;;
9974;SDS011;5028;50.974;4.968;2023-07-31T11:01:02;3.87;;;2.90;;
9974;SDS011;5028;50.974;4.968;2023-07-31T11:03:41;4.37;;;2.93;;
9974;SDS011;5028;50.974;4.968;2023-07-31T11:06:10;5.57;;;2.93;;
9974;SDS011;5028;50.974;4.968;2023-07-31T11:08:44;6.57;;;3.27;;
9974;SDS011;5028;50.974;4.968;2023-07-31T11:11:15;4.53;;;2.93;;
9974;SDS011;5028;50.974;4.968;2023-07-31T11:13:45;5.07;;;3.27;;
9974;SDS011;5028;50.974;4.968;2023-07-31T11:16:18;4.33;;;3.40;;
9974;SDS011;5028;50.974;4.968;2023-07-31T11:18:48;5.70;;;3.13;;
9974;SDS011;5028;50.974;4.968;2023-07-31T11:21:19;8.73;;;3.20;;
9974;SDS011;5028;50.974;4.968;2023-07-31T11:23:49;6.20;;;3.37;;
9974;SDS011;5028;50.974;4.968;2023-07-31T11:26:19;6.50;;;3.40;;
9974;SDS011;5028;50.974;4.968;2023-07-31T11:28:49;4.27;;;3.10;;
9974;SDS011;5028;50.974;4.968;2023-07-31T11:31:20;5.23;;;3.10;;
9974;SDS011;5028;50.974;4.968;2023-07-31T11:33:49;6.60;;;3.03;;
9974;SDS011;5028;50.974;4.968;2023-07-31T11:36:20;6.33;;;3.33;;
9974;SDS011;5028;50.974;4.968;2023-07-31T11:38:49;4.60;;;3.23;;
9974;SDS011;5028;50.974;4.968;2023-07-31T11:41:18;5.50;;;3.20;;
9974;SDS011;5028;50.974;4.968;2023-07-31T11:43:47;7.40;;;3.20;;
9974;SDS011;5028;50.974;4.968;2023-07-31T11:46:15;4.70;;;3.20;;
9974;SDS011;5028;50.974;4.968;2023-07-31T11:48:47;6.37;;;3.23;;
9974;SDS011;5028;50.974;4.968;2023-07-31T11:51:16;4.23;;;2.97;;
9974;SDS011;5028;50.974;4.968;2023-07-31T11:53:45;6.57;;;3.77;;
9974;SDS011;5028;50.974;4.968;2023-07-31T11:56:16;4.43;;;3.10;;
9974;SDS011;5028;50.974;4.968;2023-07-31T11:58:47;6.83;;;3.57;;
9974;SDS011;5028;50.974;4.968;2023-07-31T12:01:18;8.13;;;3.60;;
9974;SDS011;5028;50.974;4.968;2023-07-31T12:03:49;5.27;;;3.20;;
9974;SDS011;5028;50.974;4.968;2023-07-31T12:06:18;4.30;;;3.10;;
9974;SDS011;5028;50.974;4.968;2023-07-31T12:08:48;6.07;;;3.30;;
9974;SDS011;5028;50.974;4.968;2023-07-31T12:11:18;5.80;;;3.50;;
9974;SDS011;5028;50.974;4.968;2023-07-31T12:13:46;8.17;;;3.87;;
9974;SDS011;5028;50.974;4.968;2023-07-31T12:16:15;6.73;;;3.80;;
9974;SDS011;5028;50.974;4.968;2023-07-31T12:18:44;5.80;;;3.70;;
9974;SDS011;5028;50.974;4.968;2023-07-31T12:21:18;5.53;;;3.47;;
9974;SDS011;5028;50.974;4.968;2023-07-31T12:23:48;6.73;;;3.77;;
9974;SDS011;5028;50.974;4.968;2023-07-31T12:26:17;5.93;;;3.10;;
9974;SDS011;5028;50.974;4.968;2023-07-31T12:28:47;5.67;;;3.23;;
9974;SDS011;5028;50.974;4.968;2023-07-31T12:31:17;7.53;;;3.43;;
9974;SDS011;5028;50.974;4.968;2023-07-31T12:33:47;4.90;;;3.00;;
9974;SDS011;5028;50.974;4.968;2023-07-31T12:36:20;5.20;;;3.63;;
9974;SDS011;5028;50.974;4.968;2023-07-31T12:38:50;5.27;;;3.07;;
9974;SDS011;5028;50.974;4.968;2023-07-31T12:41:20;4.27;;;3.23;;
9974;SDS011;5028;50.974;4.968;2023-07-31T12:43:49;6.40;;;3.43;;
9974;SDS011;5028;50.974;4.968;2023-07-31T12:46:18;4.00;;;3.10;;
9974;SDS011;5028;50.974;4.968;2023-07-31T12:48:46;4.30;;;3.10;;
9974;SDS011;5028;50.974;4.968;2023-07-31T12:51:15;6.77;;;3.40;;
9974;SDS011;5028;50.974;4.968;2023-07-31T12:53:46;10.83;;;3.20;;
9974;SDS011;5028;50.974;4.968;2023-07-31T12:56:14;5.20;;;2.97;;
9974;SDS011;5028;50.974;4.968;2023-07-31T12:58:44;4.23;;;3.13;;
9974;SDS011;5028;50.974;4.968;2023-07-31T13:01:12;6.60;;;3.20;;
9974;SDS011;5028;50.974;4.968;2023-07-31T13:03:41;5.13;;;3.10;;
9974;SDS011;5028;50.974;4.968;2023-07-31T13:06:10;6.10;;;3.33;;
9974;SDS011;5028;50.974;4.968;2023-07-31T13:08:39;6.97;;;3.10;;
9974;SDS011;5028;50.974;4.968;2023-07-31T13:11:09;6.17;;;3.60;;
9974;SDS011;5028;50.974;4.968;2023-07-31T13:13:38;5.73;;;3.27;;
9974;SDS011;5028;50.974;4.968;2023-07-31T13:16:07;6.00;;;3.80;;
9974;SDS011;5028;50.974;4.968;2023-07-31T13:18:35;7.83;;;3.63;;
9974;SDS011;5028;50.974;4.968;2023-07-31T13:21:04;5.87;;;3.63;;
9974;SDS011;5028;50.974;4.968;2023-07-31T13:23:33;5.80;;;3.60;;
9974;SDS011;5028;50.974;4.968;2023-07-31T13:26:01;7.13;;;3.50;;
9974;SDS011;5028;50.974;4.968;2023-07-31T13:28:32;6.93;;;3.47;;
9974;SDS011;5028;50.974;4.968;2023-07-31T13:31:01;6.83;;;2.90;;
9974;SDS011;5028;50.974;4.968;2023-07-31T13:33:29;4.90;;;3.17;;
9974;SDS011;5028;50.974;4.968;2023-07-31T13:36:04;4.80;;;3.17;;
9974;SDS011;5028;50.974;4.968;2023-07-31T13:38:33;5.47;;;3.57;;
9974;SDS011;5028;50.974;4.968;2023-07-31T13:41:02;5.13;;;3.40;;
9974;SDS011;5028;50.974;4.968;2023-07-31T13:43:33;5.00;;;3.10;;
9974;SDS011;5028;50.974;4.968;2023-07-31T13:46:02;5.33;;;3.50;;
9974;SDS011;5028;50.974;4.968;2023-07-31T13:48:34;6.80;;;3.10;;
9974;SDS011;5028;50.974;4.968;2023-07-31T13:51:03;4.77;;;3.30;;
9974;SDS011;5028;50.974;4.968;2023-07-31T13:53:31;6.73;;;3.30;;
9974;SDS011;5028;50.974;4.968;2023-07-31T13:56:00;3.93;;;2.57;;
9974;SDS011;5028;50.974;4.968;2023-07-31T13:58:29;5.87;;;2.77;;
9974;SDS011;5028;50.974;4.968;2023-07-31T14:00:59;3.87;;;2.90;;
9974;SDS011;5028;50.974;4.968;2023-07-31T14:03:28;3.53;;;2.40;;
9974;SDS011;5028;50.974;4.968;2023-07-31T14:05:57;4.97;;;2.73;;
9974;SDS011;5028;50.974;4.968;2023-07-31T14:08:25;5.63;;;2.70;;
9974;SDS011;5028;50.974;4.968;2023-07-31T14:10:55;6.33;;;2.43;;
9974;SDS011;5028;50.974;4.968;2023-07-31T14:13:24;4.10;;;2.70;;
9974;SDS011;5028;50.974;4.968;2023-07-31T14:15:52;5.57;;;2.80;;
9974;SDS011;5028;50.974;4.968;2023-07-31T14:18:23;5.37;;;2.60;;
9974;SDS011;5028;50.974;4.968;2023-07-31T14:20:52;5.17;;;2.83;;
9974;SDS011;5028;50.974;4.968;2023-07-31T14:23:20;4.07;;;2.73;;
9974;SDS011;5028;50.974;4.968;2023-07-31T14:25:49;3.47;;;2.23;;
9974;SDS011;5028;50.974;4.968;2023-07-31T14:28:18;7.43;;;2.40;;
9974;SDS011;5028;50.974;4.968;2023-07-31T14:30:46;3.63;;;2.40;;
9974;SDS011;5028;50.974;4.968;2023-07-31T14:33:16;3.43;;;2.10;;
9974;SDS011;5028;50.974;4.968;2023-07-31T14:35:46;3.00;;;2.10;;
9974;SDS011;5028;50.974;4.968;2023-07-31T14:38:15;2.33;;;1.97;;
9974;SDS011;5028;50.974;4.968;2023-07-31T14:40:43;3.83;;;2.37;;
9974;SDS011;5028;50.974;4.968;2023-07-31T14:43:12;2.80;;;1.90;;
9974;SDS011;5028;50.974;4.968;2023-07-31T14:45:41;2.60;;;1.93;;
9974;SDS011;5028;50.974;4.968;2023-07-31T14:48:10;2.10;;;1.80;;
9974;SDS011;5028;50.974;4.968;2023-07-31T14:50:39;2.73;;;1.90;;
9974;SDS011;5028;50.974;4.968;2023-07-31T14:53:09;2.83;;;2.10;;
9974;SDS011;5028;50.974;4.968;2023-07-31T14:55:38;3.00;;;1.90;;
9974;SDS011;5028;50.974;4.968;2023-07-31T14:58:07;2.40;;;1.90;;
9974;SDS011;5028;50.974;4.968;2023-07-31T15:00:38;3.50;;;1.90;;
9974;SDS011;5028;50.974;4.968;2023-07-31T15:03:07;3.03;;;2.10;;
9974;SDS011;5028;50.974;4.968;2023-07-31T15:05:36;4.03;;;2.03;;
9974;SDS011;5028;50.974;4.968;2023-07-31T15:08:04;1.93;;;1.73;;
9974;SDS011;5028;50.974;4.968;2023-07-31T15:10:35;3.03;;;1.97;;
9974;SDS011;5028;50.974;4.968;2023-07-31T15:13:03;3.60;;;2.13;;
9974;SDS011;5028;50.974;4.968;2023-07-31T15:15:32;4.23;;;2.00;;
9974;SDS011;5028;50.974;4.968;2023-07-31T15:18:01;3.33;;;2.30;;
9974;SDS011;5028;50.974;4.968;2023-07-31T15:20:30;3.07;;;2.10;;
9974;SDS011;5028;50.974;4.968;2023-07-31T15:22:59;2.20;;;2.00;;
9974;SDS011;5028;50.974;4.968;2023-07-31T15:25:28;6.23;;;2.53;;
9974;SDS011;5028;50.974;4.968;2023-07-31T15:27:58;3.67;;;2.10;;
9974;SDS011;5028;50.974;4.968;2023-07-31T15:30:27;2.73;;;2.07;;
9974;SDS011;5028;50.974;4.968;2023-07-31T15:32:57;3.10;;;2.10;;